This is the latest recevied weather packets stored in our database for station/object N2MLB-WX. If no packets are shown the sender has not sent any weather packets the latest 1 day(s).
| Time | Temp. | Humidity | Pressure | Rain* | Wind** | Luminosity | Snow |
|---|---|---|---|---|---|---|---|
| 1778100140 | 9.44° C | 87% | 1006 hPa | 0 mm | - | 46 W/m² | - |
| 1778099841 | 9.44° C | 88% | 1006 hPa | 0 mm | - | 23 W/m² | - |
| 1778097140 | 13.33° C | 73% | 1006 hPa | 0 mm | - | 60 W/m² | - |
| 1778096841 | 13.89° C | 73% | 1006 hPa | 0 mm | - | 74 W/m² | - |
| 1778093840 | 15° C | 60% | 1005 hPa | 0 mm | - | 79 W/m² | - |
| 1778093540 | 15° C | 65% | 1005 hPa | 0 mm | - | 103 W/m² | - |
| 1778092943 | 14.44° C | 64% | 1005 hPa | 0 mm | - | 166 W/m² | - |
| 1778092340 | 15° C | 63% | 1005 hPa | 0 mm | - | 191 W/m² | - |
| 1778091142 | 13.89° C | 66% | 1005 hPa | 0 mm | - | 78 W/m² | - |
| 1778090840 | 13.33° C | 69% | 1005 hPa | 0 mm | - | 86 W/m² | - |
| 1778088740 | 13.33° C | 67% | 1005 hPa | 0 mm | - | 58 W/m² | - |
| 1778088140 | 12.78° C | 74% | 1005 hPa | 0 mm | - | 65 W/m² | - |
| 1778087840 | 12.22° C | 80% | 1005 hPa | 0 mm | - | 63 W/m² | - |
| 1778086640 | 10.56° C | 85% | 1005 hPa | 0 mm | - | 37 W/m² | - |
| 1778086340 | 10.56° C | 85% | 1005 hPa | 0 mm | - | 36 W/m² | - |
| 1778085441 | 10.56° C | 85% | 1005 hPa | 0 mm | - | 24 W/m² | - |
| 1778085140 | 11.67° C | 83% | 1005 hPa | 0 mm | - | 26 W/m² | - |
| 1778084541 | 11.11° C | 86% | 1005 hPa | 0 mm | - | 32 W/m² | - |
| 1778083940 | 12.22° C | 83% | 1005 hPa | 0 mm | - | 50 W/m² | - |
| 1778082744 | 11.67° C | 83% | 1005 hPa | 0 mm | - | 41 W/m² | - |
| 1778082447 | 11.67° C | 85% | 1005 hPa | 0 mm | - | 39 W/m² | - |
| 1778079144 | 10° C | 91% | 1004 hPa | 0 mm | - | 25 W/m² | - |
| 1778078540 | 10° C | 92% | 1004 hPa | 0 mm | - | 43 W/m² | - |
| 1778077640 | 9.44° C | 93% | 1004 hPa | 0 mm | - | 36 W/m² | - |
| 1778076440 | 8.89° C | 95% | 1004 hPa | 0 mm | - | 17 W/m² | - |
* Rain latest hour (hover to see other rain measurements)
** Current wind speed in m/s (hover to see current wind gust speed)